Time;durP1;ratioP1;P1;durP2;ratioP2;P2;SDS_P1;SDS_P2;PMS_P1;PMS_P2;Temp;Humidity;BMP_temperature;BMP_pressure;BME280_temperature;BME280_humidity;BME280_pressure;Samples;Min_cycle;Max_cycle;Signal;HPM_P1;HPM_P2
2022/12/28 00:01:36;;;;;;;4.25;3.05;;;8.30;99.90;;;;;;4999296;28;20240;-82
2022/12/28 00:04:05;;;;;;;5.28;3.50;;;8.10;99.90;;;;;;4997524;28;20227;-81
2022/12/28 00:06:33;;;;;;;4.15;2.90;;;8.20;99.90;;;;;;4997612;28;20177;-83
2022/12/28 00:08:59;;;;;;;6.07;3.38;;;8.10;99.90;;;;;;4997838;28;20224;-88
2022/12/28 00:11:26;;;;;;;9.13;3.97;;;8.20;99.90;;;;;;4998933;28;20201;-80
2022/12/28 00:13:52;;;;;;;3.85;3.20;;;8.20;99.90;;;;;;4999056;28;20196;-80
2022/12/28 00:16:25;;;;;;;6.05;3.00;;;8.30;99.90;;;;;;4999159;28;20165;-85
2022/12/28 00:18:51;;;;;;;7.10;3.20;;;8.30;99.90;;;;;;4998544;28;20177;-83
2022/12/28 00:21:17;;;;;;;7.10;2.60;;;8.20;99.90;;;;;;4997415;28;20173;-83
2022/12/28 00:23:43;;;;;;;6.45;2.95;;;8.20;99.90;;;;;;4995260;28;20193;-87
2022/12/28 00:26:12;;;;;;;3.95;2.63;;;8.20;99.90;;;;;;4995269;28;20538;-86
2022/12/28 00:28:38;;;;;;;7.05;3.28;;;8.30;99.90;;;;;;4996400;28;20231;-82
2022/12/28 00:31:04;;;;;;;7.28;3.55;;;8.20;99.90;;;;;;4995330;28;20176;-86
2022/12/28 00:33:30;;;;;;;5.03;2.85;;;8.20;99.90;;;;;;4996573;28;20681;-84
2022/12/28 00:35:58;;;;;;;8.23;3.38;;;8.30;99.90;;;;;;4994636;28;20185;-81
2022/12/28 00:38:24;;;;;;;4.65;2.70;;;8.40;99.90;;;;;;4994218;28;20630;-80
2022/12/28 00:40:50;;;;;;;4.80;3.35;;;8.50;99.90;;;;;;4994901;28;20177;-84
2022/12/28 00:43:16;;;;;;;4.32;3.28;;;8.40;99.90;;;;;;4995945;28;20271;-85
2022/12/28 00:45:46;;;;;;;6.85;2.90;;;8.40;99.90;;;;;;4996004;28;20180;-81
2022/12/28 00:48:12;;;;;;;5.88;2.63;;;8.40;99.90;;;;;;4995571;28;20180;-80
2022/12/28 00:50:38;;;;;;;3.50;3.20;;;8.20;99.90;;;;;;4994081;28;20176;-82
2022/12/28 00:53:04;;;;;;;4.70;3.97;;;8.20;99.90;;;;;;4995189;28;20197;-83
2022/12/28 00:55:29;;;;;;;4.90;3.38;;;8.20;99.90;;;;;;4993887;28;20165;-82
2022/12/28 00:57:58;;;;;;;6.28;3.05;;;8.30;99.90;;;;;;4994013;28;20177;-81
2022/12/28 01:00:24;;;;;;;4.55;3.45;;;8.30;99.90;;;;;;4993973;28;20169;-85
2022/12/28 01:02:49;;;;;;;4.63;3.20;;;8.30;99.90;;;;;;4994807;28;20264;-80
2022/12/28 01:05:15;;;;;;;9.23;3.97;;;8.20;99.90;;;;;;4993933;28;20697;-80
2022/12/28 01:07:40;;;;;;;3.67;3.38;;;8.30;99.90;;;;;;4993807;28;20511;-80
2022/12/28 01:10:07;;;;;;;6.50;3.65;;;8.40;99.90;;;;;;4993697;28;20196;-80
2022/12/28 01:12:32;;;;;;;5.82;2.97;;;8.50;99.90;;;;;;4995094;28;20275;-81
2022/12/28 01:14:58;;;;;;;5.85;3.10;;;8.50;99.90;;;;;;4995118;28;20285;-84
2022/12/28 01:17:24;;;;;;;5.07;3.05;;;8.60;99.90;;;;;;4993987;28;20181;-82
2022/12/28 01:19:49;;;;;;;3.58;3.28;;;8.60;99.90;;;;;;4993960;28;20724;-83
2022/12/28 01:22:15;;;;;;;3.40;3.03;;;8.70;99.90;;;;;;4993437;28;20698;-80
2022/12/28 01:24:40;;;;;;;6.70;3.45;;;8.80;99.90;;;;;;4995106;28;20181;-83
2022/12/28 01:27:06;;;;;;;8.13;4.22;;;8.70;99.90;;;;;;4994488;28;20211;-88
2022/12/28 01:29:32;;;;;;;3.35;2.88;;;8.80;99.90;;;;;;4995052;28;20177;-82
2022/12/28 01:31:58;;;;;;;3.50;3.20;;;8.90;99.90;;;;;;4993715;28;20165;-81
2022/12/28 01:34:23;;;;;;;4.90;3.15;;;8.90;99.90;;;;;;4994480;28;20224;-81
2022/12/28 01:36:49;;;;;;;3.85;3.00;;;8.80;99.90;;;;;;4994897;28;20213;-84
2022/12/28 01:39:15;;;;;;;4.85;4.22;;;8.90;99.90;;;;;;4994005;28;20256;-82
2022/12/28 01:41:41;;;;;;;6.70;3.13;;;8.80;99.90;;;;;;4994692;28;20216;-81
2022/12/28 01:44:09;;;;;;;4.32;3.08;;;8.90;99.90;;;;;;4993588;28;20197;-85
2022/12/28 01:46:49;;;;;;;5.57;3.15;;;8.90;99.90;;;;;;4995029;28;20193;-81
2022/12/28 01:49:56;;;;;;;4.88;3.88;;;8.70;99.90;;;;;;4994443;28;20203;-82
2022/12/28 01:52:35;;;;;;;7.28;3.67;;;8.80;99.90;;;;;;4972396;28;20280;-86
2022/12/28 01:55:32;;;;;;;3.80;3.47;;;8.70;99.90;;;;;;4972665;28;20181;-84
2022/12/28 01:58:02;;;;;;;5.22;3.60;;;8.60;99.90;;;;;;4984712;28;20209;-84
2022/12/28 02:00:28;;;;;;;4.20;3.78;;;8.60;99.90;;;;;;4993754;28;20185;-81
2022/12/28 02:03:17;;;;;;;7.57;4.35;;;8.60;99.90;;;;;;4994228;28;20300;-81
2022/12/28 02:05:47;;;;;;;6.22;3.85;;;8.60;99.90;;;;;;5009176;28;20649;-81
2022/12/28 02:08:28;;;;;;;7.50;3.83;;;8.70;99.90;;;;;;4992679;28;20169;-80
2022/12/28 02:10:54;;;;;;;4.28;3.88;;;8.70;99.90;;;;;;4992896;28;20227;-80
2022/12/28 02:13:22;;;;;;;5.10;4.57;;;8.80;99.90;;;;;;4992554;28;20184;-80
2022/12/28 02:15:49;;;;;;;5.38;3.83;;;8.80;99.90;;;;;;4992280;28;20541;-81
2022/12/28 02:18:16;;;;;;;5.38;3.47;;;8.70;99.90;;;;;;4993611;28;20170;-81
2022/12/28 02:21:09;;;;;;;4.18;3.75;;;8.70;99.90;;;;;;4994169;28;20177;-82
2022/12/28 02:24:12;;;;;;;6.28;3.60;;;8.80;99.90;;;;;;4992651;28;20213;-85
2022/12/28 02:27:01;;;;;;;11.77;4.28;;;8.90;99.90;;;;;;4994065;28;20164;-82
2022/12/28 02:30:01;;;;;;;4.55;3.22;;;9.00;99.90;;;;;;4993707;28;20181;-84
2022/12/28 02:32:27;;;;;;;6.03;3.88;;;9.00;99.90;;;;;;4992623;28;20208;-84
2022/12/28 02:35:07;;;;;;;3.50;3.20;;;9.00;99.90;;;;;;4993065;28;20173;-88
2022/12/28 02:38:02;;;;;;;4.30;3.95;;;8.90;99.90;;;;;;4993794;28;20173;-85
2022/12/28 02:40:40;;;;;;;3.70;2.92;;;9.00;99.90;;;;;;4985313;28;20259;-82
2022/12/28 02:43:06;;;;;;;7.35;4.40;;;9.00;99.90;;;;;;4993704;28;20217;-83
2022/12/28 02:51:34;;;;;;;3.95;3.25;;;9.20;99.90;;;;;;4993631;28;20180;-85
2022/12/28 02:57:29;;;;;;;3.40;3.10;;;9.20;99.90;;;;;;4994153;28;20672;-81
2022/12/28 03:00:18;;;;;;;4.90;2.90;;;9.20;99.90;;;;;;4993565;28;20176;-82
2022/12/28 03:02:58;;;;;;;3.53;3.22;;;9.20;99.90;;;;;;4992555;28;20609;-85
2022/12/28 03:09:23;;;;;;;5.95;2.72;;;9.30;99.90;;;;;;4973339;28;20240;-82
2022/12/28 03:12:00;;;;;;;10.27;3.05;;;9.30;99.90;;;;;;4993306;28;20247;-87
2022/12/28 03:14:33;;;;;;;3.40;2.45;;;9.40;99.90;;;;;;4992106;28;20169;-83
2022/12/28 03:31:07;;;;;;;11.25;1.90;;;9.60;99.90;;;;;;4992911;28;20312;-80
2022/12/28 03:33:37;;;;;;;6.20;1.98;;;9.60;99.90;;;;;;4991863;28;20193;-84
2022/12/28 03:36:09;;;;;;;3.67;1.75;;;9.50;99.90;;;;;;4991853;28;20181;-90
2022/12/28 03:39:06;;;;;;;5.35;1.95;;;9.50;99.90;;;;;;4993001;28;20203;-84
2022/12/28 03:41:37;;;;;;;3.63;1.50;;;9.60;99.90;;;;;;4992188;28;20180;-85
2022/12/28 03:44:09;;;;;;;6.22;1.70;;;9.60;99.90;;;;;;4996549;28;20184;-81
2022/12/28 03:46:50;;;;;;;3.53;1.75;;;9.70;99.90;;;;;;4999829;28;20248;-86
2022/12/28 03:49:16;;;;;;;3.15;1.75;;;9.70;99.90;;;;;;4996327;28;20696;-84
2022/12/28 03:51:45;;;;;;;5.45;2.03;;;9.70;99.90;;;;;;4996604;28;20606;-80
2022/12/28 03:54:14;;;;;;;6.78;2.03;;;9.70;99.90;;;;;;4997633;28;20189;-89
2022/12/28 03:56:45;;;;;;;1.52;1.42;;;9.80;99.90;;;;;;4998531;28;20177;-81
2022/12/28 03:59:26;;;;;;;3.92;1.80;;;9.70;99.90;;;;;;5006840;28;20177;-87
2022/12/28 04:01:53;;;;;;;4.53;1.83;;;9.80;99.90;;;;;;4995381;28;20709;-90
2022/12/28 04:04:19;;;;;;;4.60;1.98;;;9.80;99.90;;;;;;4995297;28;20200;-90
2022/12/28 04:06:44;;;;;;;8.88;1.90;;;9.70;99.90;;;;;;4996438;28;20161;-85
2022/12/28 04:09:10;;;;;;;4.35;2.33;;;9.80;99.90;;;;;;4995094;28;20652;-81
2022/12/28 04:11:36;;;;;;;7.78;1.80;;;9.70;99.90;;;;;;4995396;28;20169;-81
2022/12/28 04:14:05;;;;;;;4.50;2.50;;;9.80;99.90;;;;;;4995238;28;20200;-87
2022/12/28 04:16:30;;;;;;;3.83;2.22;;;9.80;99.90;;;;;;4995946;28;20187;-82
2022/12/28 04:18:56;;;;;;;6.38;2.63;;;9.90;99.90;;;;;;4995546;28;20268;-86
2022/12/28 04:21:21;;;;;;;3.25;2.00;;;9.80;99.90;;;;;;4996431;28;20622;-89
2022/12/28 04:23:47;;;;;;;3.22;2.35;;;9.80;99.90;;;;;;4996334;28;20217;-85
2022/12/28 04:26:15;;;;;;;7.63;2.05;;;9.80;99.90;;;;;;4996679;28;20622;-90
2022/12/28 04:28:41;;;;;;;2.50;1.92;;;9.80;99.90;;;;;;4995037;28;20362;-85
2022/12/28 04:31:09;;;;;;;4.43;2.03;;;9.70;99.90;;;;;;4996668;28;20200;-85
2022/12/28 04:33:36;;;;;;;6.25;2.03;;;9.60;99.90;;;;;;4995599;28;20221;-85
2022/12/28 04:36:11;;;;;;;3.05;2.17;;;9.50;99.90;;;;;;4995602;28;20185;-84
2022/12/28 04:38:37;;;;;;;8.30;2.30;;;9.50;99.90;;;;;;4995586;28;20270;-89
2022/12/28 04:41:04;;;;;;;4.15;1.90;;;9.60;99.90;;;;;;5000122;28;20158;-88
2022/12/28 04:43:30;;;;;;;4.75;2.47;;;9.50;99.90;;;;;;5006962;28;20213;-83
2022/12/28 04:46:01;;;;;;;7.30;2.45;;;9.50;99.90;;;;;;5015116;28;20173;-82
2022/12/28 04:48:27;;;;;;;4.03;2.03;;;9.50;99.90;;;;;;4995556;28;20177;-90
2022/12/28 04:50:54;;;;;;;4.68;2.42;;;9.50;99.90;;;;;;4995592;28;20174;-87
2022/12/28 04:53:20;;;;;;;3.90;1.98;;;9.50;99.90;;;;;;5000478;28;20193;-82
2022/12/28 04:55:46;;;;;;;4.50;1.83;;;9.60;99.90;;;;;;4999862;28;20174;-83
2022/12/28 04:58:12;;;;;;;6.38;1.98;;;9.60;99.90;;;;;;4998241;28;20231;-88
2022/12/28 05:00:38;;;;;;;6.82;2.08;;;9.60;99.90;;;;;;4999083;28;20161;-84
2022/12/28 05:03:03;;;;;;;4.22;2.33;;;9.50;99.90;;;;;;4998540;28;20243;-88
2022/12/28 05:05:30;;;;;;;10.70;2.10;;;9.60;99.90;;;;;;4998668;28;20166;-84
2022/12/28 05:07:58;;;;;;;3.15;1.70;;;9.70;99.90;;;;;;4997717;28;20208;-86
2022/12/28 05:10:24;;;;;;;1.90;1.42;;;9.60;99.90;;;;;;4998076;28;20177;-89
2022/12/28 05:12:52;;;;;;;2.85;1.42;;;9.60;99.90;;;;;;5016333;28;20208;-90
2022/12/28 05:15:18;;;;;;;6.70;2.00;;;9.60;99.90;;;;;;5014837;28;20169;-89
2022/12/28 05:17:43;;;;;;;2.08;1.65;;;9.60;99.90;;;;;;4999488;28;20173;-89
2022/12/28 05:20:11;;;;;;;7.18;2.20;;;9.70;99.90;;;;;;4997416;28;20219;-86
2022/12/28 05:22:37;;;;;;;7.47;1.52;;;9.80;99.90;;;;;;5000273;28;20263;-89
2022/12/28 05:25:03;;;;;;;7.47;1.98;;;9.80;99.90;;;;;;5014502;28;20622;-88
2022/12/28 05:27:28;;;;;;;4.88;1.40;;;9.70;99.90;;;;;;5014387;28;20200;-88
2022/12/28 05:29:54;;;;;;;2.65;1.30;;;9.80;99.90;;;;;;4999166;28;20188;-81
2022/12/28 05:32:20;;;;;;;3.67;1.63;;;9.80;99.90;;;;;;5014377;28;20766;-81
2022/12/28 05:34:45;;;;;;;2.15;1.27;;;9.90;99.90;;;;;;4997752;28;20173;-86
2022/12/28 05:37:11;;;;;;;10.43;2.22;;;9.80;99.90;;;;;;5012342;28;20173;-82
2022/12/28 05:39:36;;;;;;;1.65;1.40;;;9.90;99.90;;;;;;5014387;28;20169;-86
2022/12/28 05:42:03;;;;;;;2.85;1.90;;;10.00;99.90;;;;;;4998932;28;20352;-87
2022/12/28 05:44:29;;;;;;;3.28;1.65;;;10.00;99.90;;;;;;4997643;28;20193;-89
2022/12/28 05:46:55;;;;;;;3.55;1.20;;;10.00;99.90;;;;;;4997448;28;20169;-85
2022/12/28 05:49:20;;;;;;;3.55;1.40;;;10.10;99.90;;;;;;4997692;28;20220;-89
2022/12/28 05:51:51;;;;;;;3.75;1.70;;;10.10;99.90;;;;;;4997836;28;20666;-87
2022/12/28 05:54:17;;;;;;;3.50;1.30;;;10.10;99.90;;;;;;5013960;28;20191;-82
2022/12/28 05:56:43;;;;;;;7.82;1.83;;;10.10;99.90;;;;;;5013540;28;20181;-83
2022/12/28 05:59:09;;;;;;;3.00;1.33;;;10.20;99.90;;;;;;4998241;28;20169;-89
2022/12/28 06:01:37;;;;;;;2.25;1.15;;;10.10;99.90;;;;;;4997502;28;20185;-83
2022/12/28 06:04:11;;;;;;;6.90;1.30;;;10.10;99.90;;;;;;4998322;28;20209;-86
2022/12/28 06:06:36;;;;;;;2.88;1.55;;;10.20;99.90;;;;;;4998509;28;20197;-90
2022/12/28 06:09:03;;;;;;;1.40;1.30;;;10.30;99.90;;;;;;4998367;28;20649;-89
2022/12/28 06:11:29;;;;;;;5.88;1.70;;;10.20;99.90;;;;;;5012649;28;20189;-81
2022/12/28 06:13:56;;;;;;;6.32;1.38;;;10.10;99.90;;;;;;4996407;28;20208;-81
2022/12/28 06:16:24;;;;;;;7.78;1.85;;;10.10;99.90;;;;;;4996210;28;20196;-81
2022/12/28 06:18:51;;;;;;;6.05;1.30;;;10.10;99.90;;;;;;5012992;28;20172;-84
2022/12/28 06:21:35;;;;;;;5.10;1.33;;;10.00;99.90;;;;;;4996410;28;20204;-86
2022/12/28 06:24:02;;;;;;;2.88;1.67;;;10.00;99.90;;;;;;5011992;28;20714;-84
2022/12/28 06:26:29;;;;;;;5.68;1.73;;;10.00;99.90;;;;;;4996906;28;20296;-85
2022/12/28 06:28:56;;;;;;;4.93;1.67;;;10.00;99.90;;;;;;4998112;28;20646;-87
2022/12/28 06:31:24;;;;;;;7.25;1.38;;;10.00;99.90;;;;;;5013918;28;20173;-85
2022/12/28 06:33:55;;;;;;;5.00;1.88;;;10.00;99.90;;;;;;4997125;28;20201;-86
2022/12/28 06:36:24;;;;;;;2.10;1.30;;;10.00;99.90;;;;;;4998785;28;20165;-83
2022/12/28 06:38:53;;;;;;;9.30;1.75;;;10.10;99.90;;;;;;4994790;28;20733;-83
2022/12/28 06:41:20;;;;;;;6.38;1.50;;;10.10;99.90;;;;;;5011646;28;20588;-87
2022/12/28 06:43:47;;;;;;;2.72;1.55;;;10.10;99.90;;;;;;4995113;28;20232;-83
2022/12/28 06:46:15;;;;;;;6.68;1.75;;;10.20;99.90;;;;;;5022942;28;20260;-81
2022/12/28 06:48:41;;;;;;;1.98;1.27;;;10.20;99.90;;;;;;5015732;28;20672;-82
2022/12/28 06:51:16;;;;;;;6.43;1.70;;;10.20;99.90;;;;;;5000753;28;20168;-88
2022/12/28 06:53:42;;;;;;;8.55;2.40;;;10.10;99.90;;;;;;5010404;28;20196;-80
2022/12/28 06:56:13;;;;;;;10.32;1.52;;;10.30;99.90;;;;;;4995358;28;20180;-82
2022/12/28 06:58:39;;;;;;;2.38;1.45;;;10.20;99.90;;;;;;5010501;28;20661;-85
2022/12/28 07:01:11;;;;;;;3.65;1.40;;;10.30;99.90;;;;;;4994623;28;20177;-85
2022/12/28 07:03:37;;;;;;;3.42;1.58;;;10.30;99.90;;;;;;4996145;28;21069;-83
2022/12/28 07:06:03;;;;;;;5.13;1.63;;;10.10;99.90;;;;;;4994818;28;20169;-88
2022/12/28 07:08:29;;;;;;;6.53;1.83;;;10.20;99.90;;;;;;4996188;28;20195;-84
2022/12/28 07:11:07;;;;;;;3.15;1.70;;;10.30;99.90;;;;;;5016305;28;20165;-83
2022/12/28 07:13:33;;;;;;;2.15;1.48;;;10.30;99.90;;;;;;4995460;28;20203;-86
2022/12/28 07:16:08;;;;;;;5.90;1.30;;;10.30;99.90;;;;;;4997841;28;20172;-82
2022/12/28 07:18:34;;;;;;;6.60;1.88;;;10.30;99.90;;;;;;4997858;28;20187;-82
2022/12/28 07:21:07;;;;;;;6.82;1.30;;;10.30;99.90;;;;;;5014669;28;20173;-82
2022/12/28 07:23:45;;;;;;;4.47;1.25;;;10.30;99.90;;;;;;5013840;28;20224;-84
2022/12/28 07:26:19;;;;;;;3.65;1.38;;;10.20;99.90;;;;;;5000031;28;20679;-88
2022/12/28 07:28:47;;;;;;;6.75;1.23;;;10.30;99.90;;;;;;4998612;28;20206;-81
2022/12/28 07:31:18;;;;;;;4.80;1.50;;;10.40;99.90;;;;;;4997257;28;20222;-81
2022/12/28 07:33:45;;;;;;;6.80;1.65;;;10.40;99.90;;;;;;5014003;28;20848;-81
2022/12/28 07:36:20;;;;;;;13.55;1.67;;;10.30;99.90;;;;;;5013480;28;20211;-82
2022/12/28 07:38:46;;;;;;;7.43;1.52;;;10.20;99.90;;;;;;5002764;28;20172;-86
2022/12/28 07:41:14;;;;;;;4.60;1.45;;;10.30;99.90;;;;;;5008059;28;20176;-82
2022/12/28 07:43:41;;;;;;;8.07;1.48;;;10.40;99.90;;;;;;5023159;28;20215;-84
2022/12/28 07:46:10;;;;;;;7.88;1.27;;;10.40;99.90;;;;;;5021207;28;20223;-81
2022/12/28 07:48:36;;;;;;;3.85;1.65;;;10.40;99.90;;;;;;4997024;28;20843;-81
2022/12/28 07:51:05;;;;;;;3.60;1.65;;;10.30;99.90;;;;;;5012023;28;20176;-83
2022/12/28 07:53:31;;;;;;;12.05;1.40;;;10.20;99.90;;;;;;4996662;28;20251;-87
2022/12/28 07:55:57;;;;;;;2.85;1.30;;;10.20;99.90;;;;;;4997058;28;20173;-88
2022/12/28 07:58:23;;;;;;;7.43;1.40;;;10.20;99.90;;;;;;5012533;28;20169;-85
2022/12/28 08:00:49;;;;;;;5.60;1.55;;;10.20;99.90;;;;;;4997093;28;20592;-82
2022/12/28 08:03:15;;;;;;;3.60;1.48;;;10.20;99.90;;;;;;4995594;28;20615;-82
2022/12/28 08:05:41;;;;;;;6.85;1.65;;;10.20;99.90;;;;;;4996535;28;20197;-81
2022/12/28 08:08:06;;;;;;;3.97;1.90;;;10.20;99.90;;;;;;4996921;28;20252;-86
2022/12/28 08:10:32;;;;;;;4.30;1.80;;;10.20;99.90;;;;;;4996323;28;20166;-82
2022/12/28 08:12:59;;;;;;;4.28;1.60;;;10.20;99.90;;;;;;4996485;28;20220;-87
2022/12/28 08:15:25;;;;;;;6.20;2.22;;;10.30;99.90;;;;;;4996666;28;20162;-81
2022/12/28 08:17:52;;;;;;;3.72;1.95;;;10.10;99.90;;;;;;5011591;28;20657;-83
2022/12/28 08:20:17;;;;;;;6.10;1.88;;;10.20;99.90;;;;;;5011703;28;20208;-83
2022/12/28 08:22:43;;;;;;;4.93;1.60;;;10.20;99.90;;;;;;5012246;28;20720;-87
2022/12/28 08:25:09;;;;;;;6.28;2.00;;;10.10;99.90;;;;;;4996799;28;20170;-82
2022/12/28 08:27:34;;;;;;;2.40;1.40;;;10.10;99.90;;;;;;4995881;28;20209;-83
2022/12/28 08:30:00;;;;;;;6.65;2.20;;;10.00;99.90;;;;;;4999995;28;20255;-86
2022/12/28 08:32:27;;;;;;;5.53;2.22;;;10.10;99.90;;;;;;5001883;28;20193;-83
2022/12/28 08:34:53;;;;;;;6.70;2.25;;;10.10;99.90;;;;;;5016763;28;20256;-92
2022/12/28 08:37:18;;;;;;;6.18;1.80;;;10.00;99.90;;;;;;5017184;28;20224;-80
2022/12/28 08:39:44;;;;;;;7.90;2.65;;;9.90;99.90;;;;;;4999751;28;20170;-83
2022/12/28 08:42:09;;;;;;;3.42;2.03;;;10.00;99.90;;;;;;4998512;28;20261;-86
2022/12/28 08:44:35;;;;;;;2.42;1.80;;;10.00;99.90;;;;;;4996103;28;20236;-82
2022/12/28 08:47:01;;;;;;;3.65;2.00;;;10.00;99.90;;;;;;4997578;28;20169;-88
2022/12/28 08:49:27;;;;;;;7.20;2.05;;;10.10;99.90;;;;;;5017323;28;20238;-79
2022/12/28 08:51:52;;;;;;;5.40;2.30;;;10.20;99.90;;;;;;5033008;28;20182;-81
2022/12/28 08:54:18;;;;;;;8.60;3.28;;;10.10;99.90;;;;;;5015326;28;20221;-89
2022/12/28 08:56:44;;;;;;;8.48;3.17;;;10.20;99.90;;;;;;5021904;28;20679;-89
2022/12/28 08:59:15;;;;;;;4.22;2.40;;;10.30;99.90;;;;;;4994169;28;20169;-82
2022/12/28 09:01:40;;;;;;;6.80;2.78;;;10.30;99.90;;;;;;4994635;28;20169;-80
2022/12/28 09:04:10;;;;;;;7.75;2.88;;;10.10;99.90;;;;;;4994573;28;20552;-79
2022/12/28 09:06:38;;;;;;;4.22;3.00;;;10.20;99.90;;;;;;4995201;28;20627;-81
2022/12/28 09:09:06;;;;;;;3.85;2.20;;;10.10;99.90;;;;;;4996190;28;20472;-80
2022/12/28 09:11:35;;;;;;;12.02;2.80;;;10.10;99.90;;;;;;4994506;28;20169;-80
2022/12/28 09:14:02;;;;;;;5.43;2.78;;;10.10;99.90;;;;;;4995222;28;20238;-79
2022/12/28 09:16:28;;;;;;;7.13;2.92;;;10.10;99.90;;;;;;4995093;28;20166;-81
2022/12/28 09:18:56;;;;;;;12.73;3.15;;;10.30;99.90;;;;;;4994949;28;20196;-82
2022/12/28 09:21:24;;;;;;;2.92;2.45;;;10.40;99.90;;;;;;4995303;28;20652;-87
2022/12/28 09:23:49;;;;;;;7.50;3.13;;;10.40;99.90;;;;;;4994663;28;20339;-82
2022/12/28 09:26:16;;;;;;;7.15;3.05;;;10.40;99.90;;;;;;4993502;28;20248;-81
2022/12/28 09:28:50;;;;;;;8.05;2.75;;;10.40;99.90;;;;;;4994767;28;20650;-85
2022/12/28 09:31:16;;;;;;;3.47;2.08;;;10.40;99.90;;;;;;4994883;28;20638;-82
2022/12/28 09:34:00;;;;;;;9.85;2.70;;;10.40;99.90;;;;;;4994585;28;20220;-83
2022/12/28 09:36:30;;;;;;;9.75;3.38;;;10.40;99.90;;;;;;4987099;28;20170;-90
2022/12/28 09:38:57;;;;;;;9.10;3.22;;;10.50;99.90;;;;;;4990498;28;20232;-85
2022/12/28 09:41:40;;;;;;;11.32;2.97;;;10.50;99.90;;;;;;4990831;28;20642;-86
2022/12/28 09:44:18;;;;;;;5.60;2.90;;;10.50;99.90;;;;;;4974770;28;20210;-84
2022/12/28 09:46:57;;;;;;;9.68;4.32;;;10.50;99.90;;;;;;4979009;28;20178;-79
2022/12/28 09:49:33;;;;;;;5.78;2.67;;;10.60;99.90;;;;;;4982304;28;20165;-82
2022/12/28 09:52:29;;;;;;;10.20;3.17;;;10.50;99.90;;;;;;4976216;28;20520;-80
2022/12/28 09:55:03;;;;;;;6.35;2.67;;;10.50;99.90;;;;;;4978149;28;20631;-89
2022/12/28 09:57:36;;;;;;;10.27;3.28;;;10.40;99.90;;;;;;4976372;28;20185;-81
2022/12/28 10:00:03;;;;;;;8.40;2.33;;;10.30;99.90;;;;;;4989742;28;20277;-80
2022/12/28 10:02:31;;;;;;;7.18;2.40;;;10.30;99.90;;;;;;4989489;28;20225;-80
2022/12/28 10:04:57;;;;;;;5.32;2.50;;;10.30;99.90;;;;;;4990501;28;20188;-80
2022/12/28 10:07:23;;;;;;;4.55;2.33;;;10.40;99.90;;;;;;4989533;28;20626;-80
2022/12/28 10:09:49;;;;;;;4.80;2.30;;;10.50;99.90;;;;;;4974737;28;20180;-81
2022/12/28 10:12:20;;;;;;;2.78;2.00;;;10.50;99.90;;;;;;4974299;28;20281;-81
2022/12/28 10:14:47;;;;;;;7.35;2.50;;;10.50;99.90;;;;;;4989394;28;20166;-81
2022/12/28 10:17:15;;;;;;;3.63;1.92;;;10.50;99.90;;;;;;4989148;28;20678;-81
2022/12/28 10:19:45;;;;;;;4.57;2.58;;;10.60;99.90;;;;;;4974329;28;20177;-81
2022/12/28 10:22:17;;;;;;;3.00;2.45;;;10.70;99.90;;;;;;4990507;28;20205;-84
2022/12/28 10:24:43;;;;;;;2.80;1.80;;;10.70;99.90;;;;;;4989711;28;20193;-85
2022/12/28 10:27:28;;;;;;;3.10;1.48;;;10.50;99.90;;;;;;4990815;28;20165;-82
2022/12/28 10:29:53;;;;;;;4.43;1.52;;;10.50;99.90;;;;;;4991933;28;20188;-83
2022/12/28 10:32:19;;;;;;;3.15;1.63;;;10.70;99.90;;;;;;5008536;28;20316;-86
2022/12/28 10:35:00;;;;;;;2.92;2.10;;;10.70;99.90;;;;;;4993996;28;20308;-83
2022/12/28 10:37:31;;;;;;;6.95;2.67;;;10.80;99.90;;;;;;4992330;28;20172;-82
2022/12/28 10:40:15;;;;;;;3.30;1.77;;;10.70;99.90;;;;;;4992282;28;20192;-81
2022/12/28 10:42:51;;;;;;;3.00;1.90;;;10.70;99.90;;;;;;4993163;28;20243;-83
2022/12/28 10:45:20;;;;;;;3.60;2.13;;;10.80;99.90;;;;;;4992185;28;20176;-81
2022/12/28 10:47:49;;;;;;;3.20;1.55;;;10.80;99.90;;;;;;4992711;28;20169;-84
2022/12/28 10:50:36;;;;;;;6.32;2.22;;;10.90;99.90;;;;;;4992515;28;20165;-83
2022/12/28 10:53:02;;;;;;;2.55;2.05;;;11.00;99.90;;;;;;4995460;28;20658;-82
2022/12/28 10:55:32;;;;;;;7.93;2.33;;;10.90;99.90;;;;;;4993335;28;20176;-84
2022/12/28 10:58:21;;;;;;;2.53;1.85;;;10.90;99.90;;;;;;4993695;28;20225;-87
2022/12/28 11:01:03;;;;;;;2.97;1.85;;;10.90;99.90;;;;;;4994182;28;20180;-85
2022/12/28 11:03:34;;;;;;;3.17;2.13;;;11.00;99.90;;;;;;4993757;28;20209;-81
2022/12/28 11:06:20;;;;;;;3.97;2.83;;;11.00;99.90;;;;;;4992834;28;20165;-80
2022/12/28 11:08:58;;;;;;;6.97;2.47;;;10.90;99.90;;;;;;4992997;28;20177;-81
2022/12/28 11:11:24;;;;;;;5.43;1.95;;;11.00;99.90;;;;;;4993057;28;20165;-82
2022/12/28 11:14:13;;;;;;;3.00;2.33;;;11.00;99.90;;;;;;4991398;28;20621;-81
2022/12/28 11:16:40;;;;;;;3.78;2.55;;;11.00;99.90;;;;;;4992797;28;20175;-81
2022/12/28 11:19:06;;;;;;;6.68;2.67;;;11.00;99.90;;;;;;4992703;28;20165;-81
2022/12/28 11:21:33;;;;;;;4.45;2.30;;;11.10;99.90;;;;;;4992213;28;20195;-82
2022/12/28 11:23:59;;;;;;;6.22;2.17;;;11.20;99.90;;;;;;4991455;28;20693;-84
2022/12/28 11:26:49;;;;;;;4.97;2.28;;;11.20;99.90;;;;;;4993272;28;20164;-86
2022/12/28 11:29:16;;;;;;;4.45;2.00;;;11.20;99.90;;;;;;4992482;28;20303;-83
2022/12/28 11:32:05;;;;;;;7.78;2.47;;;11.10;99.90;;;;;;4992439;28;20260;-83
2022/12/28 11:34:31;;;;;;;6.72;1.88;;;11.20;99.90;;;;;;4992912;28;20221;-82
2022/12/28 11:36:57;;;;;;;11.65;1.95;;;11.20;99.90;;;;;;4992067;28;20193;-84
2022/12/28 11:39:26;;;;;;;3.42;1.90;;;11.10;99.90;;;;;;4992126;28;20713;-83
2022/12/28 11:41:56;;;;;;;11.45;2.38;;;11.10;99.90;;;;;;4992960;28;20173;-84
2022/12/28 11:44:42;;;;;;;5.13;2.20;;;11.10;99.90;;;;;;4992805;28;20308;-82
2022/12/28 11:47:25;;;;;;;6.55;2.15;;;11.20;99.90;;;;;;4987535;28;20181;-85
2022/12/28 11:49:52;;;;;;;3.50;2.33;;;11.10;99.90;;;;;;4992581;28;20179;-81
2022/12/28 11:52:42;;;;;;;5.30;2.42;;;11.20;99.90;;;;;;4991545;28;20232;-83
2022/12/28 11:55:25;;;;;;;4.85;1.73;;;11.20;99.90;;;;;;4992493;28;20220;-83
2022/12/28 11:57:52;;;;;;;6.03;2.10;;;11.10;99.90;;;;;;4991581;28;20186;-83
2022/12/28 12:00:18;;;;;;;3.58;1.77;;;11.30;99.90;;;;;;4991204;28;20240;-83
2022/12/28 12:02:49;;;;;;;5.03;2.10;;;11.30;99.90;;;;;;4991284;28;20225;-83
2022/12/28 12:05:34;;;;;;;5.95;2.53;;;11.10;99.90;;;;;;4991323;28;20183;-82
2022/12/28 12:08:00;;;;;;;6.07;2.22;;;11.20;99.90;;;;;;4991560;28;20213;-82
2022/12/28 12:10:34;;;;;;;4.63;1.90;;;11.20;99.90;;;;;;4992165;28;20630;-83
2022/12/28 12:13:01;;;;;;;5.97;2.08;;;11.30;99.90;;;;;;4991284;28;20604;-82
2022/12/28 12:15:48;;;;;;;6.78;2.28;;;11.20;99.90;;;;;;4992585;28;20197;-83
2022/12/28 12:18:19;;;;;;;2.17;1.60;;;11.10;99.90;;;;;;4994118;28;20609;-88
2022/12/28 12:21:07;;;;;;;5.47;2.33;;;11.00;99.90;;;;;;4994475;28;20240;-82
2022/12/28 12:23:47;;;;;;;5.20;2.20;;;11.00;99.90;;;;;;4993782;28;20251;-82
2022/12/28 12:26:32;;;;;;;8.77;2.08;;;11.00;99.90;;;;;;4995862;28;20238;-83
2022/12/28 12:29:15;;;;;;;5.35;1.75;;;11.00;99.90;;;;;;4994583;28;20195;-82
2022/12/28 12:31:48;;;;;;;6.30;1.80;;;11.20;99.90;;;;;;4995764;28;20646;-82
2022/12/28 12:34:33;;;;;;;10.77;2.00;;;11.10;99.90;;;;;;4994317;28;20551;-82
2022/12/28 12:37:29;;;;;;;3.63;2.20;;;11.10;99.90;;;;;;4995631;28;20170;-82
2022/12/28 12:40:20;;;;;;;2.88;2.05;;;11.10;99.90;;;;;;4995830;28;20170;-83
2022/12/28 12:43:23;;;;;;;4.78;1.75;;;11.10;99.90;;;;;;4994575;28;20209;-81
2022/12/28 12:46:26;;;;;;;6.50;2.00;;;11.20;99.90;;;;;;4995318;28;20224;-81
2022/12/28 12:49:24;;;;;;;2.28;1.50;;;11.20;99.90;;;;;;4995759;28;20219;-81
2022/12/28 12:52:16;;;;;;;3.72;2.10;;;11.30;99.90;;;;;;4983129;28;20187;-80
2022/12/28 12:55:16;;;;;;;4.72;1.65;;;11.30;99.90;;;;;;4994202;28;20550;-82
2022/12/28 12:57:49;;;;;;;2.50;1.30;;;11.20;99.90;;;;;;5010475;28;20197;-82
2022/12/28 13:00:18;;;;;;;5.50;2.17;;;11.30;99.90;;;;;;4995100;28;20572;-82
2022/12/28 13:03:09;;;;;;;9.40;2.13;;;11.40;99.90;;;;;;5009487;28;20290;-83
2022/12/28 13:05:37;;;;;;;7.35;2.05;;;11.50;99.90;;;;;;5010348;28;20272;-82
2022/12/28 13:08:03;;;;;;;2.58;2.03;;;11.50;99.90;;;;;;4994462;28;20267;-82
2022/12/28 13:10:43;;;;;;;7.30;1.90;;;11.50;99.90;;;;;;4994441;28;20173;-87
2022/12/28 13:13:20;;;;;;;4.80;1.73;;;11.60;99.90;;;;;;5010453;28;20243;-82
2022/12/28 13:15:46;;;;;;;9.57;1.98;;;11.60;99.90;;;;;;4994092;28;20165;-83
2022/12/28 13:18:17;;;;;;;5.47;2.35;;;11.40;99.90;;;;;;5010244;28;20267;-82
2022/12/28 13:21:01;;;;;;;5.88;2.38;;;11.40;99.90;;;;;;5010306;28;20212;-81
2022/12/28 13:23:28;;;;;;;3.88;1.75;;;11.40;99.90;;;;;;4994765;28;20216;-81
2022/12/28 13:26:00;;;;;;;9.75;2.35;;;11.50;99.90;;;;;;4994488;28;20181;-81
2022/12/28 13:28:29;;;;;;;4.63;2.13;;;11.50;99.90;;;;;;5010003;28;20177;-81
2022/12/28 13:31:01;;;;;;;5.85;2.25;;;11.60;99.90;;;;;;5009373;28;20173;-81
2022/12/28 13:33:29;;;;;;;4.00;1.63;;;11.70;99.90;;;;;;5009500;28;20189;-81
2022/12/28 13:36:15;;;;;;;4.72;1.45;;;11.80;99.90;;;;;;4994726;28;20196;-81
2022/12/28 13:38:41;;;;;;;4.15;1.55;;;11.70;99.90;;;;;;5019810;28;20173;-83